Time;durP1;ratioP1;P1;durP2;ratioP2;P2;SDS_P1;SDS_P2;PMS_P1;PMS_P2;Temp;Humidity;BMP_temperature;BMP_pressure;BME280_temperature;BME280_humidity;BME280_pressure;Samples;Min_cycle;Max_cycle;Signal;HPM_P1;HPM_P2
2021/12/23 00:01:25;;;;;;;14.07;9.15;;;;;;;-1.35;50.00;95863.94;4939001;29;20110;-79
2021/12/23 00:03:51;;;;;;;19.00;9.75;;;;;;;-1.41;50.76;95867.03;4939901;29;20419;-81
2021/12/23 00:06:17;;;;;;;16.30;8.65;;;;;;;-1.46;50.60;95875.09;4939621;29;20035;-81
2021/12/23 00:08:42;;;;;;;16.35;9.82;;;;;;;-1.54;51.06;95867.28;4955213;29;20122;-81
2021/12/23 00:11:07;;;;;;;17.83;9.73;;;;;;;-1.51;50.80;95872.09;4938891;29;20031;-81
2021/12/23 00:13:35;;;;;;;13.52;9.63;;;;;;;-1.55;50.59;95871.56;4938609;29;20028;-79
2021/12/23 00:16:04;;;;;;;13.93;9.82;;;;;;;-1.55;50.67;95871.56;4938786;29;20042;-81
2021/12/23 00:23:44;;;;;;;25.83;9.65;;;;;;;-1.66;50.99;95866.56;4939903;29;20511;-80
2021/12/23 00:26:10;;;;;;;15.73;8.43;;;;;;;-1.66;50.87;95863.22;4937073;29;20049;-79
2021/12/23 00:28:35;;;;;;;18.90;8.57;;;;;;;-1.71;50.94;95870.44;4938172;29;20035;-80
2021/12/23 00:31:01;;;;;;;13.85;9.57;;;;;;;-1.86;51.12;95868.25;4939020;29;20063;-79
2021/12/23 00:33:30;;;;;;;13.88;9.65;;;;;;;-1.84;51.00;95870.69;4937648;29;20051;-80
2021/12/23 00:35:56;;;;;;;18.17;9.65;;;;;;;-1.82;51.61;95867.06;4943944;29;20542;-80
2021/12/23 00:38:32;;;;;;;16.30;9.80;;;;;;;-1.79;51.03;95873.66;4948057;29;20047;-80
2021/12/23 00:41:00;;;;;;;21.00;10.50;;;;;;;-1.75;51.11;95869.09;4943108;29;20470;-81
2021/12/23 00:43:25;;;;;;;24.50;14.70;;;;;;;-1.73;51.10;95872.31;4950794;29;20035;-80
2021/12/23 00:45:51;;;;;;;32.30;17.90;;;;;;;-1.67;50.91;95866.69;4952478;29;20090;-79
2021/12/23 00:48:16;;;;;;;28.15;16.73;;;;;;;-1.67;50.92;95871.78;4970415;28;20039;-80
2021/12/23 00:50:42;;;;;;;35.05;15.48;;;;;;;-1.68;50.96;95871.00;4961184;28;20055;-80
2021/12/23 00:53:10;;;;;;;30.40;16.50;;;;;;;-1.68;50.54;95868.44;4939442;29;20110;-80
2021/12/23 00:55:35;;;;;;;30.05;14.95;;;;;;;-1.65;50.50;95863.06;4939623;29;20058;-80
2021/12/23 00:58:01;;;;;;;28.00;11.88;;;;;;;-1.67;50.59;95856.50;4938664;29;20414;-80
2021/12/23 01:00:27;;;;;;;23.85;10.88;;;;;;;-1.73;50.52;95851.94;4939720;29;20419;-80
2021/12/23 01:02:58;;;;;;;18.15;11.55;;;;;;;-1.83;51.19;95847.59;4937948;29;20031;-80
2021/12/23 01:05:24;;;;;;;21.90;11.60;;;;;;;-1.87;50.92;95850.53;4940548;29;20499;-80
2021/12/23 01:07:50;;;;;;;14.45;9.82;;;;;;;-1.90;50.98;95840.63;4955480;29;20073;-80
2021/12/23 01:10:16;;;;;;;19.13;10.88;;;;;;;-1.96;50.92;95847.03;4955843;29;20066;-80
2021/12/23 01:12:48;;;;;;;17.83;9.85;;;;;;;-2.04;51.56;95851.16;4939259;29;20031;-80
2021/12/23 01:17:56;;;;;;;20.35;11.85;;;;;;;-2.25;52.16;95849.47;4940104;29;20043;-80
2021/12/23 01:20:27;;;;;;;17.80;10.90;;;;;;;-2.33;52.65;95851.03;4955964;29;20559;-80
2021/12/23 01:22:54;;;;;;;14.98;9.77;;;;;;;-2.47;52.61;95850.44;4923038;29;20134;-80
2021/12/23 01:25:20;;;;;;;15.85;10.07;;;;;;;-2.53;53.26;95845.84;4922184;29;20070;-80
2021/12/23 01:27:45;;;;;;;18.10;9.65;;;;;;;-2.55;53.44;95841.81;4938427;29;20035;-80
2021/12/23 01:30:14;;;;;;;14.82;8.98;;;;;;;-2.62;53.34;95848.34;4940048;29;20039;-78
2021/12/23 01:32:40;;;;;;;13.73;9.77;;;;;;;-2.61;53.02;95843.13;4940027;29;20039;-79
2021/12/23 01:35:08;;;;;;;15.75;9.85;;;;;;;-2.53;52.86;95840.75;4956769;29;20046;-80
2021/12/23 01:37:33;;;;;;;13.57;9.02;;;;;;;-2.51;52.89;95836.34;4956927;28;20039;-78
2021/12/23 01:39:59;;;;;;;12.32;8.63;;;;;;;-2.54;52.34;95830.69;4938605;29;20611;-79
2021/12/23 01:42:24;;;;;;;18.83;10.80;;;;;;;-2.46;52.26;95831.66;4955763;28;20096;-79
2021/12/23 01:44:50;;;;;;;14.50;9.55;;;;;;;-2.33;51.87;95831.47;4937645;29;20058;-80
2021/12/23 01:47:17;;;;;;;17.75;9.82;;;;;;;-2.29;51.67;95834.56;4938468;28;20027;-80
2021/12/23 01:49:43;;;;;;;15.57;10.00;;;;;;;-2.28;51.52;95825.97;4955972;29;20043;-80
2021/12/23 01:52:09;;;;;;;25.80;12.93;;;;;;;-2.35;52.66;95819.78;4956850;29;20038;-79
2021/12/23 01:54:55;;;;;;;39.88;22.58;;;;;;;-2.28;52.37;95823.44;4942817;29;20024;-79
2021/12/23 01:57:29;;;;;;;20.27;11.60;;;;;;;-2.24;51.26;95829.91;4955936;28;20050;-80
2021/12/23 01:59:54;;;;;;;11.05;8.48;;;;;;;-2.26;51.69;95830.03;4957004;29;20023;-80
2021/12/23 02:02:20;;;;;;;15.25;9.88;;;;;;;-2.36;52.01;95834.28;4958212;28;20110;-80
2021/12/23 02:04:45;;;;;;;17.60;9.65;;;;;;;-2.44;51.59;95834.13;4957380;29;20554;-81
2021/12/23 02:07:11;;;;;;;10.88;8.38;;;;;;;-2.53;52.13;95843.31;4955404;28;20054;-80
2021/12/23 02:09:39;;;;;;;14.10;8.73;;;;;;;-2.65;52.14;95846.84;4923872;29;20055;-80
2021/12/23 02:12:05;;;;;;;18.08;9.73;;;;;;;-2.94;53.46;95849.19;4958025;29;20065;-79
2021/12/23 02:14:33;;;;;;;19.38;11.40;;;;;;;-3.05;53.83;95857.72;4955478;29;20039;-79
2021/12/23 02:17:05;;;;;;;23.00;12.00;;;;;;;-3.33;55.36;95859.09;4939787;29;20555;-80
2021/12/23 02:19:30;;;;;;;27.60;15.73;;;;;;;-3.87;57.63;95859.13;4955840;29;20586;-79
2021/12/23 02:21:56;;;;;;;36.60;16.80;;;;;;;-4.12;58.49;95864.44;4938824;29;20082;-79
2021/12/23 02:24:25;;;;;;;36.22;16.10;;;;;;;-4.38;59.84;95859.59;4922588;29;20035;-79
2021/12/23 02:26:50;;;;;;;29.85;16.02;;;;;;;-4.33;59.57;95849.91;4954725;29;20031;-79
2021/12/23 02:29:16;;;;;;;33.05;15.85;;;;;;;-4.20;58.98;95852.31;4938166;29;20035;-79
2021/12/23 02:31:46;;;;;;;31.23;15.55;;;;;;;-4.02;58.68;95858.53;4953444;29;20043;-79
2021/12/23 02:34:12;;;;;;;35.97;16.75;;;;;;;-4.01;58.98;95846.66;4953921;29;20050;-79
2021/12/23 02:36:37;;;;;;;25.33;14.60;;;;;;;-3.92;58.13;95856.91;4954756;29;20051;-79
2021/12/23 02:39:05;;;;;;;31.27;16.55;;;;;;;-3.92;58.66;95851.81;4922818;29;20475;-79
2021/12/23 02:41:31;;;;;;;35.13;15.45;;;;;;;-3.88;58.59;95846.53;4938345;29;20035;-80
2021/12/23 02:43:56;;;;;;;34.65;16.00;;;;;;;-3.80;58.21;95854.34;4955472;28;20411;-79
2021/12/23 02:46:22;;;;;;;33.35;16.48;;;;;;;-3.72;58.46;95857.13;4956474;29;20046;-79
2021/12/23 02:48:47;;;;;;;28.70;16.05;;;;;;;-3.67;57.69;95853.28;4955930;28;20054;-79
2021/12/23 02:51:31;;;;;;;32.42;18.00;;;;;;;-3.54;57.53;95850.63;4922701;29;20585;-79
2021/12/23 02:53:57;;;;;;;32.70;16.73;;;;;;;-3.52;57.72;95850.50;4956019;28;20042;-79
2021/12/23 02:56:22;;;;;;;37.97;18.75;;;;;;;-3.55;57.09;95843.09;4954829;29;20035;-79
2021/12/23 02:58:48;;;;;;;37.50;19.13;;;;;;;-3.59;57.64;95836.63;4961772;28;20046;-80
2021/12/23 03:01:14;;;;;;;36.67;17.83;;;;;;;-3.40;57.02;95837.63;4960494;29;20118;-80
2021/12/23 03:03:40;;;;;;;32.78;17.05;;;;;;;-3.40;57.01;95835.09;4924325;29;20066;-79
2021/12/23 03:06:09;;;;;;;39.53;17.20;;;;;;;-3.34;57.08;95836.31;4939822;29;20043;-79
2021/12/23 03:08:43;;;;;;;38.85;16.88;;;;;;;-3.28;56.85;95835.81;4939141;29;20046;-79
2021/12/23 03:11:09;;;;;;;39.85;18.77;;;;;;;-3.23;56.85;95833.75;4954468;29;20063;-79
2021/12/23 03:13:35;;;;;;;63.08;23.63;;;;;;;-3.20;56.81;95828.41;4956470;28;20035;-80
2021/12/23 03:16:00;;;;;;;72.63;30.05;;;;;;;-3.16;56.21;95828.97;4938928;29;20090;-79
2021/12/23 03:18:28;;;;;;;79.75;31.77;;;;;;;-3.21;55.98;95820.91;4939278;29;20109;-79
2021/12/23 03:20:55;;;;;;;71.93;33.30;;;;;;;-3.23;56.59;95823.56;4938894;29;20122;-79
2021/12/23 03:23:20;;;;;;;66.97;31.42;;;;;;;-3.24;56.66;95826.25;4956010;28;20050;-79
2021/12/23 03:25:45;;;;;;;143.27;65.97;;;;;;;-3.26;56.79;95828.06;4956696;29;20399;-79
2021/12/23 03:28:11;;;;;;;194.98;90.97;;;;;;;-3.23;56.34;95827.84;4956645;28;20038;-80
2021/12/23 03:30:36;;;;;;;132.48;63.50;;;;;;;-3.23;55.45;95826.13;4939783;29;20046;-79
2021/12/23 03:33:02;;;;;;;102.07;47.08;;;;;;;-3.21;55.88;95821.72;4937878;29;20039;-79
2021/12/23 03:35:27;;;;;;;93.43;42.35;;;;;;;-3.20;55.90;95823.31;4938391;29;20039;-79
2021/12/23 03:37:53;;;;;;;83.05;38.25;;;;;;;-3.15;56.34;95831.38;4922253;29;20468;-79
2021/12/23 03:40:19;;;;;;;53.90;24.92;;;;;;;-3.17;55.67;95834.97;4955154;29;20043;-78
2021/12/23 03:42:45;;;;;;;48.35;23.05;;;;;;;-3.18;56.55;95829.09;4937491;29;20646;-79
2021/12/23 03:45:10;;;;;;;42.92;22.33;;;;;;;-3.16;56.17;95828.97;4955222;29;20077;-79
2021/12/23 03:47:35;;;;;;;37.15;19.88;;;;;;;-3.12;56.32;95833.69;4955135;28;20031;-78
2021/12/23 03:50:01;;;;;;;34.85;17.45;;;;;;;-3.13;55.81;95838.88;4954168;29;20031;-80
2021/12/23 03:52:35;;;;;;;36.10;17.42;;;;;;;-3.14;55.73;95838.09;4921078;28;20039;-80
2021/12/23 03:55:01;;;;;;;36.13;19.08;;;;;;;-3.16;56.11;95836.59;4921581;29;20059;-78
2021/12/23 03:57:26;;;;;;;33.53;18.17;;;;;;;-3.11;56.20;95837.84;4936416;28;20110;-78
2021/12/23 03:59:51;;;;;;;30.35;18.60;;;;;;;-3.07;55.31;95836.69;4937025;29;20035;-80
2021/12/23 04:02:17;;;;;;;32.63;17.15;;;;;;;-3.06;55.06;95840.03;4953664;28;20039;-80
2021/12/23 04:04:42;;;;;;;37.92;17.13;;;;;;;-3.06;55.07;95845.94;4958054;29;20050;-80
2021/12/23 04:07:08;;;;;;;29.48;15.35;;;;;;;-3.12;54.61;95843.84;4955917;29;20047;-79
2021/12/23 04:09:33;;;;;;;50.80;24.17;;;;;;;-3.13;55.77;95844.78;4937606;29;20031;-79
2021/12/23 04:11:59;;;;;;;73.97;37.15;;;;;;;-3.11;54.92;95853.09;4936842;29;20032;-79
2021/12/23 04:14:30;;;;;;;85.80;39.83;;;;;;;-3.22;55.01;95845.53;4953776;28;20432;-79
2021/12/23 04:16:56;;;;;;;82.93;41.30;;;;;;;-3.25;54.71;95843.25;4951977;29;20194;-79
2021/12/23 04:19:27;;;;;;;81.03;37.95;;;;;;;-3.21;55.12;95847.16;4953959;28;20047;-79
2021/12/23 04:21:52;;;;;;;59.55;29.25;;;;;;;-3.25;55.50;95845.78;4954761;29;20043;-79
2021/12/23 04:24:18;;;;;;;66.45;32.85;;;;;;;-3.25;55.87;95845.78;4955185;28;20491;-79
2021/12/23 04:26:46;;;;;;;100.65;46.53;;;;;;;-3.33;54.98;95848.91;4956906;28;20422;-79
2021/12/23 04:29:11;;;;;;;132.25;58.65;;;;;;;-3.35;54.89;95853.31;4961918;29;20047;-80
2021/12/23 04:31:37;;;;;;;112.72;52.83;;;;;;;-3.38;54.71;95855.31;4964540;29;20039;-78
2021/12/23 04:34:02;;;;;;;134.60;55.22;;;;;;;-3.41;55.35;95851.28;4946983;29;20042;-78
2021/12/23 04:36:30;;;;;;;153.68;69.38;;;;;;;-3.45;55.02;95849.06;4962240;29;20019;-79
2021/12/23 04:38:55;;;;;;;207.65;98.25;;;;;;;-3.46;55.80;95847.47;5017315;23;20051;-82
2021/12/23 04:41:21;;;;;;;189.15;107.68;;;;;;;-3.53;56.77;95846.34;4978034;28;20054;-81
2021/12/23 04:43:47;;;;;;;95.63;51.20;;;;;;;-3.47;56.51;95851.72;4951321;29;20109;-81
2021/12/23 04:46:12;;;;;;;63.80;34.60;;;;;;;-3.36;55.74;95853.44;4963706;29;20050;-84
2021/12/23 04:48:38;;;;;;;36.42;20.58;;;;;;;-3.34;56.32;95851.59;4942303;29;20042;-86
2021/12/23 04:51:03;;;;;;;47.25;22.55;;;;;;;-3.33;56.36;95846.38;4941704;29;20130;-84
2021/12/23 04:53:29;;;;;;;50.63;20.83;;;;;;;-3.32;56.76;95850.53;4941254;29;20031;-86
2021/12/23 04:55:55;;;;;;;43.47;24.88;;;;;;;-3.32;55.50;95844.63;4941722;29;20050;-86
2021/12/23 04:58:20;;;;;;;62.35;30.77;;;;;;;-3.48;55.69;95839.16;4942594;29;20035;-81
2021/12/23 05:00:48;;;;;;;62.13;29.50;;;;;;;-3.48;55.88;95862.84;4959595;29;20031;-80
2021/12/23 05:03:15;;;;;;;46.53;23.58;;;;;;;-3.57;56.03;95860.22;4944354;29;20191;-80
2021/12/23 05:05:42;;;;;;;40.17;20.40;;;;;;;-3.64;57.06;95860.69;4960531;29;20050;-80
2021/12/23 05:08:08;;;;;;;45.53;24.58;;;;;;;-3.66;56.73;95849.81;4929584;29;20031;-80
2021/12/23 05:10:33;;;;;;;70.00;35.72;;;;;;;-3.69;56.30;95857.69;4931599;29;20031;-79
2021/12/23 05:12:59;;;;;;;69.93;33.10;;;;;;;-3.69;56.71;95850.06;4957585;28;20046;-78
2021/12/23 05:15:25;;;;;;;71.68;33.72;;;;;;;-3.60;56.88;95855.34;4957347;29;20090;-78
2021/12/23 05:17:50;;;;;;;61.58;30.02;;;;;;;-3.57;56.55;95855.13;4940089;29;20483;-78
2021/12/23 05:20:17;;;;;;;57.88;26.48;;;;;;;-3.53;56.88;95859.84;4957780;29;20059;-78
2021/12/23 05:22:45;;;;;;;78.18;34.97;;;;;;;-3.54;56.99;95854.88;4945277;29;20039;-78
2021/12/23 05:25:10;;;;;;;60.60;31.05;;;;;;;-3.54;56.83;95853.16;4943505;29;20046;-78
2021/12/23 05:27:39;;;;;;;103.30;49.20;;;;;;;-3.53;56.69;95851.41;4949519;29;20039;-78
2021/12/23 05:30:06;;;;;;;127.45;61.72;;;;;;;-3.65;55.82;95863.34;4942528;29;20035;-78
2021/12/23 05:32:31;;;;;;;110.90;53.03;;;;;;;-3.75;56.55;95855.59;4938641;28;20055;-78
2021/12/23 05:34:57;;;;;;;98.85;46.33;;;;;;;-3.79;56.33;95856.78;4939668;29;20418;-78
2021/12/23 05:37:22;;;;;;;107.90;53.97;;;;;;;-3.90;56.81;95851.72;4939839;28;20028;-78
2021/12/23 05:39:47;;;;;;;73.13;37.28;;;;;;;-3.74;56.62;95853.91;4956819;29;20039;-78
2021/12/23 05:42:13;;;;;;;66.28;32.00;;;;;;;-3.73;56.67;95852.97;4956584;28;20490;-78
2021/12/23 05:44:40;;;;;;;53.25;24.83;;;;;;;-3.62;56.47;95851.19;4956817;29;20689;-79
2021/12/23 05:47:06;;;;;;;46.97;26.70;;;;;;;-3.56;56.60;95852.47;4956920;29;20035;-79
2021/12/23 05:49:31;;;;;;;48.08;21.63;;;;;;;-3.57;56.11;95858.47;4942352;29;20058;-79
2021/12/23 05:51:57;;;;;;;95.68;45.13;;;;;;;-3.56;55.69;95857.56;4926092;29;20123;-79
2021/12/23 05:54:23;;;;;;;110.53;49.45;;;;;;;-3.60;56.12;95855.34;4941336;29;20028;-79
2021/12/23 05:56:48;;;;;;;176.98;77.00;;;;;;;-3.63;56.02;95854.66;4941081;29;20098;-79
2021/12/23 05:59:14;;;;;;;264.45;118.88;;;;;;;-3.62;55.70;95848.66;4925377;29;20031;-79
2021/12/23 06:01:39;;;;;;;251.88;122.22;;;;;;;-3.59;55.27;95856.97;4941874;29;20455;-79
2021/12/23 06:04:05;;;;;;;230.80;121.85;;;;;;;-3.66;55.35;95852.38;4940815;29;20039;-78
2021/12/23 06:06:30;;;;;;;182.48;94.85;;;;;;;-3.57;55.99;95855.94;4925820;29;20045;-78
2021/12/23 06:08:56;;;;;;;108.57;57.45;;;;;;;-3.50;55.35;95861.34;4943372;29;20036;-78
2021/12/23 06:11:21;;;;;;;213.90;103.82;;;;;;;-3.50;55.67;95863.88;4972452;29;20023;-78
2021/12/23 06:13:49;;;;;;;214.07;108.15;;;;;;;-3.54;55.16;95862.50;4954390;29;20043;-78
2021/12/23 06:16:14;;;;;;;237.55;117.72;;;;;;;-3.57;55.85;95866.09;4954715;29;20024;-78
2021/12/23 06:18:39;;;;;;;180.45;94.38;;;;;;;-3.62;55.98;95863.91;4938255;29;20510;-78
2021/12/23 06:21:05;;;;;;;131.73;71.85;;;;;;;-3.53;55.76;95864.13;4938027;29;20027;-78
2021/12/23 06:23:31;;;;;;;78.30;38.90;;;;;;;-3.52;55.49;95864.00;4937925;29;20039;-77
2021/12/23 06:25:56;;;;;;;60.95;27.75;;;;;;;-3.30;54.93;95873.28;4922012;29;20586;-78
2021/12/23 06:28:22;;;;;;;66.47;28.48;;;;;;;-3.22;54.19;95881.16;4951229;29;20023;-77
2021/12/23 06:30:50;;;;;;;46.78;23.52;;;;;;;-3.09;53.94;95865.72;4934375;29;20038;-77
2021/12/23 06:33:18;;;;;;;28.27;15.35;;;;;;;-2.94;53.77;95868.75;4937234;29;20484;-77
2021/12/23 06:35:49;;;;;;;30.35;14.25;;;;;;;-2.84;53.50;95869.63;4954449;29;20041;-77
2021/12/23 06:38:22;;;;;;;38.22;19.58;;;;;;;-2.77;53.78;95860.56;4939240;29;20034;-77
2021/12/23 06:40:47;;;;;;;61.80;30.98;;;;;;;-2.63;53.05;95862.81;4959720;29;20499;-78
2021/12/23 06:43:16;;;;;;;28.30;15.23;;;;;;;-2.51;52.50;95856.72;4959227;28;20062;-78
2021/12/23 06:45:41;;;;;;;30.17;14.65;;;;;;;-2.38;52.68;95853.16;4956660;29;20491;-79
2021/12/23 06:48:07;;;;;;;27.55;15.80;;;;;;;-2.23;52.08;95859.53;4954040;28;20049;-78
2021/12/23 06:50:32;;;;;;;32.78;16.65;;;;;;;-2.09;52.17;95856.66;4921026;29;20031;-77
2021/12/23 06:52:58;;;;;;;26.83;15.13;;;;;;;-1.91;51.43;95855.09;4956456;28;20050;-77
2021/12/23 06:55:24;;;;;;;31.42;16.88;;;;;;;-1.77;51.41;95860.78;4955790;29;20617;-77
2021/12/23 06:57:54;;;;;;;30.17;16.98;;;;;;;-1.71;51.32;95855.97;4954831;29;20527;-77
2021/12/23 07:00:20;;;;;;;35.85;18.15;;;;;;;-1.53;50.83;95851.84;4954050;29;20050;-78
2021/12/23 07:02:46;;;;;;;26.90;16.98;;;;;;;-1.41;50.47;95860.19;4937679;29;20039;-78
2021/12/23 07:05:14;;;;;;;25.35;15.18;;;;;;;-1.34;49.72;95863.00;4921043;29;20049;-77
2021/12/23 07:07:53;;;;;;;24.38;15.57;;;;;;;-1.38;50.25;95864.22;4951295;29;20086;-77
2021/12/23 07:10:20;;;;;;;28.63;16.98;;;;;;;-1.32;49.69;95856.81;4949396;29;20306;-76
2021/12/23 07:12:46;;;;;;;33.35;16.70;;;;;;;-1.17;50.06;95856.44;4950172;29;20529;-76
2021/12/23 07:15:11;;;;;;;38.75;19.15;;;;;;;-0.99;49.33;95863.28;4947369;29;20039;-77
2021/12/23 07:17:40;;;;;;;43.63;19.00;;;;;;;-0.82;49.43;95860.97;4924458;29;20032;-77
2021/12/23 07:20:06;;;;;;;40.25;20.05;;;;;;;-0.68;48.72;95861.38;4951955;29;20047;-80
2021/12/23 07:22:34;;;;;;;47.05;23.95;;;;;;;-0.56;48.26;95863.78;4950791;28;20506;-76
2021/12/23 07:24:59;;;;;;;53.25;24.83;;;;;;;-0.49;47.83;95872.50;4934994;29;20035;-77
2021/12/23 07:27:24;;;;;;;50.03;26.50;;;;;;;-0.41;47.48;95872.63;4934674;28;20159;-76
2021/12/23 07:29:50;;;;;;;55.85;27.35;;;;;;;-0.31;47.35;95873.44;4918203;29;20035;-76
2021/12/23 07:32:17;;;;;;;50.90;24.02;;;;;;;-0.28;46.67;95873.13;4951920;28;20031;-77
2021/12/23 07:34:43;;;;;;;55.63;27.58;;;;;;;-0.20;46.66;95880.91;4919356;29;20391;-77
2021/12/23 07:37:09;;;;;;;53.53;27.42;;;;;;;-0.06;46.28;95877.91;4949878;28;20042;-77
2021/12/23 07:39:36;;;;;;;54.90;27.45;;;;;;;0.06;46.18;95877.75;4950682;29;20027;-77
2021/12/23 07:42:02;;;;;;;49.75;26.85;;;;;;;0.11;46.62;95878.09;4949482;29;20027;-77
2021/12/23 07:44:28;;;;;;;46.80;25.35;;;;;;;0.25;46.56;95880.22;4934701;29;20028;-77
2021/12/23 07:46:53;;;;;;;43.17;23.67;;;;;;;0.42;45.55;95883.75;4936832;29;20039;-77
2021/12/23 07:49:18;;;;;;;38.95;21.10;;;;;;;0.41;44.37;95884.72;4952143;28;20336;-78
2021/12/23 07:51:44;;;;;;;32.92;19.45;;;;;;;0.41;44.69;95882.94;4953860;29;20035;-77
2021/12/23 07:54:09;;;;;;;33.10;18.80;;;;;;;0.43;44.84;95880.25;4934125;29;20050;-77
2021/12/23 07:56:35;;;;;;;44.13;21.58;;;;;;;0.37;44.88;95873.97;4917644;29;20383;-77
2021/12/23 07:59:01;;;;;;;37.30;19.35;;;;;;;0.38;44.90;95880.69;4932709;29;20035;-76
2021/12/23 08:01:26;;;;;;;38.03;19.45;;;;;;;0.40;44.33;95878.78;4933275;29;20403;-77
2021/12/23 08:03:51;;;;;;;45.47;24.38;;;;;;;0.33;44.94;95877.75;4950057;28;20039;-77
2021/12/23 08:06:17;;;;;;;48.67;26.83;;;;;;;0.43;44.59;95870.81;4949502;28;20066;-76
2021/12/23 08:08:42;;;;;;;56.70;27.52;;;;;;;0.52;44.73;95880.22;4933441;29;20035;-76
2021/12/23 08:11:08;;;;;;;65.00;32.28;;;;;;;0.58;44.59;95877.06;4949157;29;20118;-77
2021/12/23 08:13:33;;;;;;;61.45;29.20;;;;;;;0.66;44.17;95873.00;4933544;29;20039;-78
2021/12/23 08:16:00;;;;;;;46.47;25.73;;;;;;;0.73;44.39;95868.91;4934363;29;20041;-78
2021/12/23 08:18:26;;;;;;;61.50;27.17;;;;;;;0.82;44.25;95879.09;4951268;28;20032;-77
2021/12/23 08:20:52;;;;;;;49.65;24.83;;;;;;;0.96;44.31;95880.31;4935667;29;20032;-78
2021/12/23 08:23:17;;;;;;;50.95;23.88;;;;;;;1.08;44.91;95879.16;4948600;28;20499;-77
2021/12/23 08:25:44;;;;;;;53.90;26.85;;;;;;;1.19;44.25;95873.81;4932962;29;20451;-77
2021/12/23 08:28:10;;;;;;;64.10;26.52;;;;;;;1.28;43.92;95871.28;4935583;29;20066;-77
2021/12/23 08:30:36;;;;;;;45.42;25.25;;;;;;;1.46;43.59;95865.22;4952096;28;20038;-78
2021/12/23 08:33:01;;;;;;;58.88;25.45;;;;;;;1.57;42.39;95869.28;4952222;29;20035;-77
2021/12/23 08:35:26;;;;;;;51.65;23.85;;;;;;;1.68;42.21;95860.53;4944487;29;20035;-78
2021/12/23 08:37:52;;;;;;;45.35;23.48;;;;;;;1.71;42.11;95870.47;4963242;28;20035;-78
2021/12/23 08:40:23;;;;;;;43.72;22.83;;;;;;;1.72;42.01;95857.50;4961143;29;20066;-77
2021/12/23 08:42:49;;;;;;;52.78;22.33;;;;;;;1.71;42.20;95857.66;4935623;29;20042;-77
2021/12/23 08:45:15;;;;;;;47.38;23.23;;;;;;;1.78;41.96;95853.53;4949458;29;20035;-79
2021/12/23 08:47:41;;;;;;;42.88;23.38;;;;;;;1.82;41.82;95857.41;4917354;29;20083;-77
2021/12/23 08:50:08;;;;;;;49.17;25.15;;;;;;;1.78;41.54;95850.97;4950356;29;20035;-77
2021/12/23 08:52:33;;;;;;;46.10;25.58;;;;;;;1.70;41.60;95840.69;4949662;28;20046;-77
2021/12/23 08:54:59;;;;;;;43.80;23.95;;;;;;;1.59;41.83;95844.28;4950712;29;20035;-77
2021/12/23 08:57:24;;;;;;;56.03;26.23;;;;;;;1.61;41.82;95837.25;4949182;28;20115;-77
2021/12/23 08:59:50;;;;;;;43.28;24.00;;;;;;;1.71;42.23;95829.47;4950566;29;20039;-79
2021/12/23 09:02:15;;;;;;;58.22;25.63;;;;;;;1.71;42.05;95825.13;4917439;28;20427;-77
2021/12/23 09:04:41;;;;;;;56.60;24.80;;;;;;;1.87;42.53;95826.97;4930700;29;20031;-77
2021/12/23 09:07:11;;;;;;;59.30;25.05;;;;;;;1.94;41.43;95814.34;4932738;29;20043;-77
2021/12/23 09:09:37;;;;;;;54.00;24.15;;;;;;;1.99;41.81;95812.94;4931704;29;20038;-77
2021/12/23 09:12:03;;;;;;;42.33;25.08;;;;;;;1.77;41.74;95813.47;4946117;28;20111;-77
2021/12/23 09:14:37;;;;;;;53.10;25.77;;;;;;;1.65;42.18;95797.56;4935768;29;20166;-77
2021/12/23 09:17:03;;;;;;;53.05;26.48;;;;;;;1.72;41.42;95790.84;4936810;29;20043;-77
2021/12/23 09:19:29;;;;;;;56.50;25.38;;;;;;;1.79;42.22;95791.88;4953797;28;20518;-76
2021/12/23 09:22:43;;;;;;;49.63;25.42;;;;;;;1.72;41.61;95782.34;5119463;27;20670;-76
2021/12/23 09:25:12;;;;;;;60.30;27.08;;;;;;;1.79;42.40;95789.28;5126939;28;20039;-76
2021/12/23 09:27:53;;;;;;;53.95;27.48;;;;;;;1.75;42.20;95790.53;5127412;28;20031;-76
2021/12/23 09:33:02;;;;;;;55.92;27.17;;;;;;;1.80;42.37;95780.66;5095999;28;20042;-77
2021/12/23 09:35:32;;;;;;;51.90;25.60;;;;;;;1.78;42.01;95779.16;5091265;28;20035;-77
2021/12/23 09:37:58;;;;;;;70.85;29.30;;;;;;;1.80;42.24;95780.66;5108652;28;20035;-77
2021/12/23 09:40:23;;;;;;;69.35;33.60;;;;;;;1.83;41.76;95771.84;5108142;28;20471;-77
2021/12/23 09:42:49;;;;;;;59.28;28.88;;;;;;;1.87;42.21;95777.44;5090228;28;20062;-77
2021/12/23 09:45:17;;;;;;;71.50;29.80;;;;;;;1.96;41.96;95773.97;5107057;28;20898;-77
2021/12/23 09:47:43;;;;;;;73.03;28.08;;;;;;;1.99;41.81;95765.97;5098114;28;20048;-77
2021/12/23 09:50:11;;;;;;;63.30;28.98;;;;;;;2.03;41.61;95764.69;5133077;27;20051;-78
2021/12/23 09:52:41;;;;;;;50.55;26.15;;;;;;;2.07;41.57;95745.44;5125254;28;20084;-77
2021/12/23 09:55:11;;;;;;;60.55;26.52;;;;;;;2.16;41.79;95746.28;5091198;28;20038;-77
2021/12/23 09:57:36;;;;;;;63.13;26.58;;;;;;;2.14;40.86;95738.75;5107706;28;20034;-77
2021/12/23 10:00:03;;;;;;;57.85;25.92;;;;;;;2.09;41.46;95739.19;5090477;28;20024;-77
2021/12/23 10:02:29;;;;;;;51.97;26.00;;;;;;;2.13;41.31;95736.34;5106694;28;20044;-77
2021/12/23 10:04:54;;;;;;;62.55;26.98;;;;;;;1.99;41.13;95727.50;5124690;28;20058;-77
2021/12/23 10:07:19;;;;;;;47.83;26.38;;;;;;;2.09;42.14;95725.56;5106838;28;20431;-77
2021/12/23 10:09:59;;;;;;;54.40;27.48;;;;;;;1.94;42.02;95714.31;5125887;28;20042;-76
2021/12/23 10:39:38;;;;;;;72.20;32.22;;;;;;;2.36;41.08;95683.44;5092801;28;20101;-77
2021/12/23 10:42:17;;;;;;;65.10;32.58;;;;;;;2.31;41.19;95683.94;5109124;28;20032;-77
2021/12/23 10:44:59;;;;;;;73.20;32.20;;;;;;;2.38;41.62;95684.09;5072883;28;20035;-77
2021/12/23 10:50:28;;;;;;;59.83;29.13;;;;;;;2.40;40.47;95666.75;5095088;28;20028;-78
2021/12/23 10:53:04;;;;;;;78.40;30.52;;;;;;;2.45;40.28;95659.41;5097383;28;20028;-78
2021/12/23 10:58:16;;;;;;;63.85;30.70;;;;;;;2.53;40.59;95653.44;5084974;28;20046;-78
2021/12/23 11:00:45;;;;;;;73.18;29.48;;;;;;;2.27;40.76;95651.84;5097308;28;20057;-79
2021/12/23 11:08:52;;;;;;;53.75;25.95;;;;;;;2.36;40.44;95635.50;5093395;28;20047;-77
2021/12/23 11:39:28;;;;;;;54.42;29.58;;;;;;;2.50;40.49;95602.44;5078253;28;20547;-78
2021/12/23 11:41:53;;;;;;;51.72;27.33;;;;;;;2.50;40.69;95600.66;5118300;28;20507;-78
2021/12/23 11:44:18;;;;;;;55.83;26.80;;;;;;;2.54;40.46;95591.66;5132776;28;20027;-78
2021/12/23 11:46:54;;;;;;;60.22;26.80;;;;;;;2.63;39.87;95590.72;5115751;28;20035;-77
2021/12/23 11:49:20;;;;;;;50.78;28.05;;;;;;;2.51;40.16;95586.06;5084260;28;20039;-78
2021/12/23 11:54:21;;;;;;;68.63;29.20;;;;;;;2.48;40.46;95576.13;5079382;28;20038;-78
2021/12/23 11:56:50;;;;;;;54.25;30.40;;;;;;;2.49;40.48;95573.41;5103628;28;20051;-78
2021/12/23 11:59:16;;;;;;;75.00;27.95;;;;;;;2.51;40.17;95568.09;5080077;28;20483;-75
2021/12/23 12:01:52;;;;;;;53.80;28.50;;;;;;;2.53;40.83;95571.31;5092804;28;20031;-77
2021/12/23 12:04:37;;;;;;;51.58;27.92;;;;;;;2.50;40.71;95563.94;5086524;28;20028;-77
2021/12/23 12:07:17;;;;;;;58.55;29.63;;;;;;;2.52;40.73;95572.28;5077408;28;20043;-78
2021/12/23 12:10:04;;;;;;;50.42;28.63;;;;;;;2.62;40.34;95575.47;5077022;28;20054;-78
2021/12/23 12:12:31;;;;;;;55.08;28.98;;;;;;;2.46;40.89;95572.94;5093289;28;20027;-77
2021/12/23 12:14:57;;;;;;;56.40;27.52;;;;;;;2.46;40.80;95558.34;5059571;28;20034;-77
2021/12/23 12:17:25;;;;;;;56.67;27.08;;;;;;;2.50;40.84;95569.06;5061283;28;20032;-77
2021/12/23 12:20:08;;;;;;;51.63;27.35;;;;;;;2.54;40.82;95560.06;5113152;28;20462;-77
2021/12/23 12:22:52;;;;;;;;;;;;;;;2.37;40.85;95565.22;5107847;28;20040;-78
2021/12/23 12:25:23;;;;;;;57.63;28.60;;;;;;;2.10;41.50;95553.53;5110122;28;20414;-77
2021/12/23 12:27:55;;;;;;;65.05;28.20;;;;;;;2.01;42.03;95543.44;5094754;28;20081;-78
2021/12/23 12:30:33;;;;;;;57.75;29.40;;;;;;;2.15;41.46;95539.44;5090636;28;20031;-77
2021/12/23 12:32:59;;;;;;;54.75;29.15;;;;;;;2.20;41.43;95548.25;5073788;28;20042;-77
2021/12/23 12:35:25;;;;;;;55.75;28.15;;;;;;;2.22;41.28;95546.31;5056801;28;20035;-77
2021/12/23 12:37:51;;;;;;;53.95;28.25;;;;;;;2.34;40.64;95533.97;5092437;28;20302;-77
2021/12/23 12:40:16;;;;;;;55.97;26.90;;;;;;;2.38;41.21;95536.03;5077055;28;20079;-77